Iantha, Missouri
Current Conditions -  °F | °C
As of 3:35 PM on Friday 28 Nov 2014 (Local Time) from KPTS Reporting Station
Clear Clear  
Wind Chill: 61°   Ceiling: Unl
Heat Index: 61°   Visibility: 10mi
Dew Point: 39°   Wind: 20mph
Humidity: 45%   Direction: 210°SSW
Pressure: 29.85"   Gusts: 25mph
Location:  37.5121°N, 94.2674°W
Report Text: KPTS 282135Z AUTO 21017G22KT 10SM CLR 16/04 A2985 RMK AO2 T01610041
Loading
Personal Weather Stations






























Interactive Weather Map New forecast layout! Learn more

10-Day Weather Forecast

Advertisements
Track Severe Weather on mobile